createdAt,value
2019-05-15T00:00:19.285Z,4.00
2019-05-15T00:02:48.227Z,3.95
2019-05-15T00:05:18.813Z,4.35
2019-05-15T00:07:48.365Z,4.17
2019-05-15T00:10:18.217Z,4.50
2019-05-15T00:12:48.785Z,4.00
2019-05-15T00:15:18.267Z,4.50
2019-05-15T00:17:48.506Z,4.53
2019-05-15T00:20:20.100Z,5.55
2019-05-15T00:22:48.435Z,6.60
2019-05-15T00:25:18.860Z,4.55
2019-05-15T00:27:49.180Z,4.70
2019-05-15T00:30:19.976Z,4.55
2019-05-15T00:32:49.627Z,4.90
2019-05-15T00:35:18.570Z,4.78
2019-05-15T00:37:49.257Z,6.35
2019-05-15T00:40:18.768Z,4.70
2019-05-15T00:42:48.797Z,4.35
2019-05-15T00:45:18.727Z,4.28
2019-05-15T00:47:48.745Z,4.17
2019-05-15T00:50:18.349Z,4.25
2019-05-15T00:52:48.490Z,4.58
2019-05-15T00:55:19.058Z,4.53
2019-05-15T00:57:48.638Z,4.33
2019-05-15T01:00:38.209Z,4.22
2019-05-15T01:03:08.827Z,3.92
2019-05-15T01:05:38.749Z,4.53
2019-05-15T01:08:08.270Z,4.95
2019-05-15T01:10:38.930Z,4.37
2019-05-15T01:13:08.448Z,4.17
2019-05-15T01:15:38.657Z,4.87
2019-05-15T01:18:09.361Z,6.97
2019-05-15T01:20:39.052Z,4.42
2019-05-15T01:23:09.007Z,5.45
2019-05-15T01:25:39.333Z,4.62
2019-05-15T01:28:09.329Z,4.40
2019-05-15T01:30:39.299Z,4.72
2019-05-15T01:33:08.624Z,5.22
2019-05-15T01:35:38.359Z,4.42
2019-05-15T01:38:08.159Z,4.47
2019-05-15T01:40:38.614Z,5.42
2019-05-15T01:43:09.027Z,6.37
2019-05-15T01:45:39.451Z,5.30
2019-05-15T01:48:08.374Z,5.28
2019-05-15T01:50:38.733Z,6.50
2019-05-15T01:53:08.218Z,5.05
2019-05-15T01:55:39.493Z,5.00
2019-05-15T01:58:09.029Z,5.12
2019-05-15T02:00:39.275Z,4.80
2019-05-15T02:03:09.801Z,4.53
2019-05-15T02:05:39.139Z,5.33
2019-05-15T02:08:08.494Z,5.62
2019-05-15T02:10:39.105Z,5.30
2019-05-15T02:13:08.698Z,4.95
2019-05-15T02:15:39.521Z,4.53
2019-05-15T02:18:08.653Z,3.90
2019-05-15T02:20:39.038Z,8.43
2019-05-15T02:23:11.625Z,4.10
2019-05-15T02:25:38.909Z,4.95
2019-05-15T02:28:09.365Z,3.27
2019-05-15T02:30:40.552Z,3.55
2019-05-15T02:33:10.681Z,4.42
2019-05-15T02:35:39.576Z,5.85
2019-05-15T02:38:10.353Z,3.35
2019-05-15T02:40:40.526Z,2.90
2019-05-15T02:43:10.440Z,3.08
2019-05-15T02:45:42.125Z,3.35
2019-05-15T02:48:09.833Z,3.80
2019-05-15T02:50:39.871Z,3.50
2019-05-15T02:53:09.813Z,3.00
2019-05-15T02:55:40.243Z,3.08
2019-05-15T02:58:10.996Z,3.20
2019-05-15T03:00:47.573Z,3.50
2019-05-15T03:03:10.453Z,3.50
2019-05-15T03:05:40.796Z,3.37
2019-05-15T03:08:09.908Z,3.35
2019-05-15T03:10:40.754Z,3.80
2019-05-15T03:13:10.242Z,3.50
2019-05-15T03:15:40.470Z,3.90
2019-05-15T03:18:10.036Z,3.22
2019-05-15T03:20:39.413Z,3.85
2019-05-15T03:23:09.716Z,4.25
2019-05-15T03:25:40.200Z,3.72
2019-05-15T03:28:11.276Z,4.05
2019-05-15T03:31:13.432Z,3.60
2019-05-15T03:33:18.758Z,2.98
2019-05-15T03:35:43.361Z,3.45
2019-05-15T03:38:11.179Z,3.08
2019-05-15T03:40:40.116Z,3.65
2019-05-15T03:43:09.231Z,3.50
2019-05-15T03:45:40.511Z,3.47
2019-05-15T03:48:09.517Z,3.12
2019-05-15T03:50:40.164Z,4.50
2019-05-15T03:53:10.360Z,3.42
2019-05-15T03:55:41.117Z,3.60
2019-05-15T03:58:10.475Z,2.77
2019-05-15T04:00:40.123Z,3.30
2019-05-15T04:03:10.805Z,3.60
2019-05-15T04:05:39.769Z,4.17
2019-05-15T04:08:10.945Z,4.58
2019-05-15T04:10:39.904Z,4.53
2019-05-15T04:13:09.736Z,2.98
2019-05-15T04:15:39.981Z,3.20
2019-05-15T04:18:09.780Z,3.02
2019-05-15T04:20:40.438Z,4.12
2019-05-15T04:23:10.139Z,3.87
2019-05-15T04:25:41.560Z,4.37
2019-05-15T04:28:12.396Z,3.72
2019-05-15T04:30:40.976Z,3.47
2019-05-15T04:33:10.050Z,5.15
2019-05-15T04:35:40.055Z,4.33
2019-05-15T04:38:09.704Z,4.47
2019-05-15T04:40:39.770Z,3.47
2019-05-15T04:43:10.584Z,3.40
2019-05-15T04:45:39.597Z,3.10
2019-05-15T04:48:10.130Z,4.40
2019-05-15T04:50:40.442Z,4.70
2019-05-15T04:53:10.568Z,4.92
2019-05-15T04:55:40.674Z,4.33
2019-05-15T04:58:10.385Z,3.25
2019-05-15T05:00:53.878Z,5.17
2019-05-15T05:03:22.696Z,4.92
2019-05-15T05:05:52.074Z,5.45
2019-05-15T05:08:21.120Z,5.20
2019-05-15T05:10:50.470Z,4.78
2019-05-15T05:13:20.111Z,4.50
2019-05-15T05:15:50.349Z,5.33
2019-05-15T05:18:19.845Z,5.45
2019-05-15T05:20:48.965Z,4.53
2019-05-15T05:23:19.224Z,3.85
2019-05-15T05:25:49.111Z,4.12
2019-05-15T05:28:19.422Z,3.83
2019-05-15T05:30:48.757Z,4.90
2019-05-15T05:33:18.496Z,5.78
2019-05-15T05:35:48.526Z,5.83
2019-05-15T05:38:19.311Z,5.60
2019-05-15T05:40:49.788Z,5.05
2019-05-15T05:43:19.203Z,5.25
2019-05-15T05:45:49.124Z,5.30
2019-05-15T05:48:19.163Z,5.10
2019-05-15T05:50:49.985Z,4.65
2019-05-15T05:53:21.297Z,5.12
2019-05-15T05:55:53.010Z,5.80
2019-05-15T05:58:20.042Z,5.87
2019-05-15T06:00:49.584Z,6.05
2019-05-15T06:03:19.538Z,5.83
2019-05-15T06:05:49.483Z,5.47
2019-05-15T06:08:19.721Z,6.05
2019-05-15T06:10:49.619Z,6.40
2019-05-15T06:13:19.357Z,6.08
2019-05-15T06:15:49.107Z,5.78
2019-05-15T06:18:19.763Z,5.40
2019-05-15T06:20:49.348Z,6.95
2019-05-15T06:23:23.533Z,6.70
2019-05-15T06:25:49.979Z,7.25
2019-05-15T06:28:20.156Z,6.97
2019-05-15T06:30:49.139Z,9.28
2019-05-15T06:33:18.812Z,6.92
2019-05-15T06:35:48.967Z,7.33
2019-05-15T06:38:19.652Z,5.72
2019-05-15T06:40:49.311Z,6.20
2019-05-15T06:43:19.229Z,6.70
2019-05-15T06:45:49.047Z,6.37
2019-05-15T06:48:18.469Z,7.45
2019-05-15T06:50:48.981Z,6.60
2019-05-15T06:53:19.258Z,6.78
2019-05-15T06:55:49.254Z,8.30
2019-05-15T06:58:19.116Z,8.58
2019-05-15T07:00:48.948Z,9.08
2019-05-15T07:03:25.269Z,7.70
2019-05-15T07:05:50.689Z,8.68
2019-05-15T07:08:19.900Z,9.58
2019-05-15T07:10:48.964Z,8.95
2019-05-15T07:13:18.486Z,7.45
2019-05-15T07:15:49.602Z,15.95
2019-05-15T07:18:19.854Z,6.90
2019-05-15T07:20:49.227Z,10.05
2019-05-15T07:23:18.874Z,9.43
2019-05-15T07:25:49.647Z,8.13
2019-05-15T07:28:18.496Z,6.80
2019-05-15T07:30:49.323Z,8.38
2019-05-15T07:33:28.107Z,7.90
2019-05-15T07:35:49.227Z,7.75
2019-05-15T07:38:19.407Z,7.45
2019-05-15T07:40:57.138Z,12.03
2019-05-15T07:43:18.455Z,10.82
2019-05-15T07:45:54.009Z,11.18
2019-05-15T07:48:18.740Z,11.25
2019-05-15T07:50:49.730Z,10.28
2019-05-15T07:53:19.753Z,8.98
2019-05-15T07:55:49.997Z,7.90
2019-05-15T07:58:21.376Z,8.18
2019-05-15T08:00:49.500Z,8.68
2019-05-15T08:03:18.632Z,8.25
2019-05-15T08:05:58.821Z,8.38
2019-05-15T08:08:18.403Z,8.28
2019-05-15T08:10:48.891Z,7.85
2019-05-15T08:13:18.607Z,9.03
2019-05-15T08:15:48.639Z,7.33
2019-05-15T08:18:18.800Z,7.70
2019-05-15T08:20:48.976Z,7.97
2019-05-15T08:23:19.290Z,6.83
2019-05-15T08:25:48.748Z,7.20
2019-05-15T08:28:19.139Z,6.92
2019-05-15T08:30:49.511Z,8.08
2019-05-15T08:33:18.855Z,6.92
2019-05-15T08:35:51.614Z,8.08
2019-05-15T08:38:18.606Z,6.60
2019-05-15T08:40:48.862Z,8.45
2019-05-15T08:43:18.384Z,8.28
2019-05-15T08:45:49.846Z,6.22
2019-05-15T08:48:19.011Z,9.60
2019-05-15T08:50:48.914Z,7.90
2019-05-15T08:53:19.474Z,10.20
2019-05-15T08:55:48.669Z,6.40
2019-05-15T08:58:20.166Z,6.97
2019-05-15T09:00:52.515Z,5.72
2019-05-15T09:03:18.434Z,11.63
2019-05-15T09:05:48.571Z,8.33
2019-05-15T09:08:19.311Z,6.42
2019-05-15T09:10:50.238Z,12.53
2019-05-15T09:13:19.101Z,9.68
2019-05-15T09:15:48.517Z,8.83
2019-05-15T09:18:19.947Z,8.00
2019-05-15T09:20:49.188Z,8.20
2019-05-15T09:23:19.374Z,7.33
2019-05-15T09:25:49.333Z,7.08
2019-05-15T09:28:19.251Z,7.08
2019-05-15T09:30:48.962Z,7.47
2019-05-15T09:33:19.951Z,6.70
2019-05-15T09:35:49.156Z,9.23
2019-05-15T09:38:18.729Z,7.42
2019-05-15T09:40:50.497Z,8.68
2019-05-15T09:43:18.459Z,9.13
2019-05-15T09:45:49.228Z,8.00
2019-05-15T09:48:19.724Z,9.28
2019-05-15T09:50:49.386Z,13.58
2019-05-15T09:53:19.219Z,7.17
2019-05-15T09:55:49.411Z,9.10
2019-05-15T09:58:20.728Z,7.05
2019-05-15T10:00:51.712Z,7.47
2019-05-15T10:03:20.289Z,6.67
2019-05-15T10:05:49.276Z,6.58
2019-05-15T10:08:21.261Z,8.13
2019-05-15T10:10:49.240Z,7.42
2019-05-15T10:13:18.805Z,7.00
2019-05-15T10:15:50.835Z,8.50
2019-05-15T10:18:19.500Z,9.43
2019-05-15T10:20:48.318Z,6.72
2019-05-15T10:23:19.647Z,7.37
2019-05-15T10:25:48.442Z,6.67
2019-05-15T10:28:19.221Z,7.25
2019-05-15T10:30:49.616Z,7.00
2019-05-15T10:33:19.674Z,5.95
2019-05-15T10:35:49.100Z,6.00
2019-05-15T10:38:19.328Z,7.62
2019-05-15T10:41:01.525Z,15.93
2019-05-15T10:43:20.574Z,7.75
2019-05-15T10:45:50.027Z,6.60
2019-05-15T10:48:19.195Z,7.30
2019-05-15T10:50:47.920Z,7.90
2019-05-15T10:53:18.847Z,11.48
2019-05-15T10:55:49.509Z,6.72
2019-05-15T10:58:21.753Z,7.05
2019-05-15T11:00:49.506Z,7.62
2019-05-15T11:03:20.052Z,7.92
2019-05-15T11:05:49.325Z,11.10
2019-05-15T11:08:18.969Z,6.08
2019-05-15T11:10:49.466Z,7.47
2019-05-15T11:13:18.922Z,8.03
2019-05-15T11:15:49.311Z,6.72
2019-05-15T11:18:18.195Z,9.18
2019-05-15T11:20:48.773Z,7.58
2019-05-15T11:23:19.962Z,7.15
2019-05-15T11:25:48.694Z,9.40
2019-05-15T11:28:17.614Z,6.47
2019-05-15T11:30:49.023Z,5.90
2019-05-15T11:33:18.839Z,6.90
2019-05-15T11:35:58.002Z,6.83
2019-05-15T11:38:19.515Z,6.50
2019-05-15T11:40:49.121Z,7.28
2019-05-15T11:43:19.751Z,6.08
2019-05-15T11:45:48.448Z,7.28
2019-05-15T11:48:20.146Z,6.35
2019-05-15T11:50:47.472Z,8.25
2019-05-15T11:53:18.957Z,6.75
2019-05-15T11:55:48.042Z,7.20
2019-05-15T11:58:19.003Z,6.53
2019-05-15T12:00:49.077Z,8.00
2019-05-15T12:03:18.854Z,8.10
2019-05-15T12:05:48.148Z,5.62
2019-05-15T12:08:18.665Z,6.62
2019-05-15T12:10:49.127Z,7.00
2019-05-15T12:13:19.023Z,6.70
2019-05-15T12:15:48.592Z,7.33
2019-05-15T12:18:17.313Z,8.60
2019-05-15T12:20:48.315Z,6.75
2019-05-15T12:23:16.207Z,7.20
2019-05-15T12:25:44.926Z,6.00
2019-05-15T12:28:13.443Z,7.25
2019-05-15T12:30:42.066Z,6.83
2019-05-15T12:33:10.617Z,6.62
2019-05-15T12:35:40.155Z,6.40
2019-05-15T12:38:10.299Z,7.90
2019-05-15T13:00:43.841Z,7.30
2019-05-15T13:03:12.488Z,6.97
2019-05-15T13:05:41.277Z,7.37
2019-05-15T13:08:09.808Z,8.33
2019-05-15T13:10:38.862Z,7.78
2019-05-15T13:13:09.596Z,8.13
2019-05-15T13:15:41.073Z,7.28
2019-05-15T13:18:13.874Z,7.25
2019-05-15T13:20:39.202Z,8.43
2019-05-15T13:23:12.091Z,8.18
2019-05-15T13:25:40.692Z,11.85
2019-05-15T13:28:09.365Z,9.48
2019-05-15T13:30:41.340Z,7.20
2019-05-15T13:33:09.880Z,7.33
2019-05-15T13:35:38.889Z,7.00
2019-05-15T13:38:11.013Z,8.89
2019-05-15T13:40:42.308Z,7.35
2019-05-15T13:43:10.305Z,7.35
2019-05-15T13:45:39.062Z,7.50
2019-05-15T13:48:08.828Z,9.43
2019-05-15T13:50:40.378Z,8.83
2019-05-15T13:53:10.943Z,8.60
2019-05-15T13:55:42.377Z,8.00
2019-05-15T13:58:09.256Z,6.53
2019-05-15T14:00:39.229Z,7.15
2019-05-15T14:03:09.036Z,7.08
2019-05-15T14:05:38.448Z,6.95
2019-05-15T14:08:10.356Z,7.33
2019-05-15T14:10:39.030Z,7.53
2019-05-15T14:13:09.197Z,6.72
2019-05-15T14:15:38.440Z,7.35
2019-05-15T14:18:08.589Z,7.10
2019-05-15T14:20:38.644Z,7.03
2019-05-15T14:23:08.651Z,7.00
2019-05-15T14:25:38.903Z,7.20
2019-05-15T14:28:08.974Z,10.60
2019-05-15T14:30:37.855Z,9.30
2019-05-15T14:33:08.526Z,8.83
2019-05-15T14:35:38.001Z,7.72
2019-05-15T14:38:10.164Z,7.33
2019-05-15T14:40:37.439Z,6.53
2019-05-15T14:43:08.947Z,5.40
2019-05-15T14:45:38.865Z,6.50
2019-05-15T14:48:08.837Z,7.75
2019-05-15T14:50:38.476Z,7.95
2019-05-15T14:53:09.549Z,6.92
2019-05-15T14:55:43.091Z,6.53
2019-05-15T14:58:08.473Z,6.42
2019-05-15T15:00:41.073Z,6.00
2019-05-15T15:03:09.853Z,6.50
2019-05-15T15:05:38.870Z,7.12
2019-05-15T15:08:20.314Z,6.42
2019-05-15T15:10:38.500Z,6.87
2019-05-15T15:13:09.323Z,6.25
2019-05-15T15:15:38.098Z,7.55
2019-05-15T15:18:08.377Z,7.37
2019-05-15T15:20:37.992Z,6.08
2019-05-15T15:23:08.515Z,5.65
2019-05-15T15:25:39.761Z,5.58
2019-05-15T15:28:08.477Z,6.75
2019-05-15T15:30:38.431Z,7.00
2019-05-15T15:33:08.649Z,6.53
2019-05-15T15:35:38.332Z,5.87
2019-05-15T15:38:12.687Z,5.62
2019-05-15T15:40:38.799Z,6.25
2019-05-15T15:43:10.028Z,6.60
2019-05-15T15:45:39.280Z,7.95
2019-05-15T15:48:08.604Z,6.42
2019-05-15T15:50:38.387Z,5.65
2019-05-15T15:53:08.986Z,6.37
2019-05-15T15:55:38.592Z,6.62
2019-05-15T15:58:08.729Z,6.22
2019-05-15T16:00:38.510Z,5.37
2019-05-15T16:03:08.523Z,6.62
2019-05-15T16:05:38.425Z,5.78
2019-05-15T16:08:08.592Z,6.90
2019-05-15T16:10:38.107Z,6.95
2019-05-15T16:13:09.114Z,6.55
2019-05-15T16:15:38.531Z,5.72
2019-05-15T16:18:08.961Z,8.43
2019-05-15T16:20:39.537Z,7.17
2019-05-15T16:23:09.167Z,7.92
2019-05-15T16:25:38.510Z,6.75
2019-05-15T16:28:08.803Z,6.85
2019-05-15T16:30:50.296Z,6.12
2019-05-15T16:33:09.912Z,7.78
2019-05-15T16:35:39.512Z,8.63
2019-05-15T16:38:09.301Z,9.20
2019-05-15T16:40:38.562Z,7.87
2019-05-15T16:43:07.533Z,21.68
2019-05-15T16:45:38.655Z,18.67
2019-05-15T16:48:09.259Z,23.32
2019-05-15T16:50:38.147Z,35.25
2019-05-15T16:53:09.253Z,53.95
2019-05-15T16:55:38.005Z,67.10
2019-05-15T16:58:09.129Z,62.75
2019-05-15T17:00:38.438Z,51.88
2019-05-15T17:03:14.399Z,43.23
2019-05-15T17:05:38.759Z,44.55
2019-05-15T17:08:09.158Z,38.88
2019-05-15T17:10:38.779Z,34.78
2019-05-15T17:13:08.768Z,30.82
2019-05-15T17:15:38.488Z,27.82
2019-05-15T17:18:08.915Z,24.47
2019-05-15T17:20:38.010Z,26.12
2019-05-15T17:23:08.652Z,25.32
2019-05-15T17:25:38.506Z,28.17
2019-05-15T17:28:09.170Z,30.50
2019-05-15T17:30:38.399Z,29.65
2019-05-15T17:33:07.250Z,32.20
2019-05-15T17:35:37.898Z,26.23
2019-05-15T17:38:06.112Z,27.10
2019-05-15T17:40:34.795Z,24.57
2019-05-15T17:43:03.323Z,37.10
2019-05-15T17:45:32.513Z,43.70
2019-05-15T17:48:01.313Z,47.45
2019-05-15T17:50:44.730Z,39.78
2019-05-15T17:53:00.427Z,44.33
2019-05-15T17:55:30.414Z,34.60
2019-05-15T17:58:01.104Z,39.58
2019-05-15T18:00:29.462Z,39.55
2019-05-15T18:02:58.176Z,58.95
2019-05-15T18:05:28.277Z,46.80
2019-05-15T18:07:58.412Z,37.50
2019-05-15T18:10:27.921Z,33.53
2019-05-15T18:12:59.609Z,30.70
2019-05-15T18:15:28.172Z,23.90
2019-05-15T18:17:59.235Z,27.17
2019-05-15T18:20:29.442Z,22.62
2019-05-15T18:23:00.374Z,27.37
2019-05-15T18:25:28.996Z,26.93
2019-05-15T18:27:59.296Z,24.65
2019-05-15T18:30:28.663Z,27.48
2019-05-15T18:32:59.290Z,36.45
2019-05-15T18:35:29.267Z,21.40
2019-05-15T18:37:59.054Z,31.02
2019-05-15T18:40:28.152Z,34.90
2019-05-15T18:42:59.117Z,35.58
2019-05-15T18:45:29.005Z,34.15
2019-05-15T18:47:58.673Z,34.75
2019-05-15T18:50:29.284Z,41.45
2019-05-15T18:52:58.663Z,38.67
2019-05-15T18:55:27.616Z,40.30
2019-05-15T18:57:58.507Z,35.48
2019-05-15T19:00:29.281Z,28.95
2019-05-15T19:02:59.428Z,33.13
2019-05-15T19:05:28.138Z,28.52
2019-05-15T19:07:58.017Z,27.82
2019-05-15T19:10:28.156Z,21.85
2019-05-15T19:12:58.175Z,26.25
2019-05-15T19:15:28.769Z,17.42
2019-05-15T19:17:58.617Z,22.90
2019-05-15T19:20:28.245Z,17.25
2019-05-15T19:22:59.024Z,38.65
2019-05-15T19:25:28.550Z,32.15
2019-05-15T19:27:57.912Z,40.23
2019-05-15T19:30:28.731Z,34.20
2019-05-15T19:32:58.969Z,35.90
2019-05-15T19:35:28.119Z,30.60
2019-05-15T19:37:58.509Z,28.47
2019-05-15T19:40:28.511Z,35.17
2019-05-15T19:43:03.775Z,32.42
2019-05-15T19:45:30.029Z,28.55
2019-05-15T19:47:59.010Z,29.02
2019-05-15T19:50:28.839Z,26.80
2019-05-15T19:52:59.081Z,25.85
2019-05-15T19:55:28.005Z,23.00
2019-05-15T19:57:58.522Z,22.73
2019-05-15T20:00:28.529Z,29.63
2019-05-15T20:02:58.241Z,38.75
2019-05-15T20:05:28.927Z,36.75
2019-05-15T20:07:58.925Z,35.15
2019-05-15T20:10:29.195Z,40.43
2019-05-15T20:12:59.842Z,86.17
2019-05-15T20:15:28.869Z,163.87
2019-05-15T20:17:58.116Z,84.50
2019-05-15T20:20:28.422Z,71.02
2019-05-15T20:22:59.954Z,53.38
2019-05-15T20:25:27.986Z,33.70
2019-05-15T20:27:56.776Z,44.25
2019-05-15T20:30:25.538Z,33.53
2019-05-15T20:32:54.125Z,19.95
2019-05-15T20:35:22.772Z,36.68
2019-05-15T20:37:51.864Z,37.00
2019-05-15T20:40:20.473Z,33.10
2019-05-15T20:42:49.090Z,44.20
2019-05-15T20:45:18.718Z,51.13
2019-05-15T20:47:47.596Z,53.35
2019-05-15T20:50:19.074Z,43.17
2019-05-15T20:52:48.724Z,25.15
2019-05-15T20:55:16.982Z,20.52
2019-05-15T20:57:49.788Z,24.52
2019-05-15T21:00:19.377Z,20.20
2019-05-15T21:02:48.553Z,17.27
2019-05-15T21:05:18.639Z,15.20
2019-05-15T21:07:48.685Z,17.23
2019-05-15T21:10:21.309Z,24.92
2019-05-15T21:12:48.897Z,23.40
2019-05-15T21:15:21.425Z,25.55
2019-05-15T21:17:57.548Z,23.85
2019-05-15T21:20:18.989Z,28.67
2019-05-15T21:22:49.335Z,28.77
2019-05-15T21:25:19.807Z,23.42
2019-05-15T21:27:49.019Z,20.75
2019-05-15T21:30:19.075Z,16.05
2019-05-15T21:32:49.434Z,20.68
2019-05-15T21:35:18.625Z,16.67
2019-05-15T21:37:48.910Z,19.25
2019-05-15T21:40:18.520Z,22.80
2019-05-15T21:42:49.142Z,17.07
2019-05-15T21:45:18.648Z,16.77
2019-05-15T21:47:47.267Z,17.17
2019-05-15T21:50:19.046Z,20.00
2019-05-15T21:52:49.516Z,17.60
2019-05-15T21:55:18.752Z,22.52
2019-05-15T21:57:48.283Z,18.32
2019-05-15T22:00:28.882Z,16.50
2019-05-15T22:02:58.571Z,16.70
2019-05-15T22:05:28.434Z,16.80
2019-05-15T22:07:58.749Z,19.60
2019-05-15T22:10:28.842Z,14.78
2019-05-15T22:12:59.665Z,15.20
2019-05-15T22:15:29.163Z,16.62
2019-05-15T22:17:59.704Z,22.85
2019-05-15T22:20:30.575Z,28.02
2019-05-15T22:22:59.615Z,23.18
2019-05-15T22:25:28.855Z,25.68
2019-05-15T22:27:58.020Z,30.82
2019-05-15T22:30:29.856Z,24.52
2019-05-15T22:32:58.934Z,23.30
2019-05-15T22:35:29.450Z,25.45
2019-05-15T22:37:58.537Z,20.50
2019-05-15T22:40:29.078Z,19.07
2019-05-15T22:42:59.113Z,28.23
2019-05-15T22:45:28.528Z,22.67
2019-05-15T22:47:58.583Z,21.40
2019-05-15T22:50:28.275Z,20.88
2019-05-15T22:52:58.706Z,15.20
2019-05-15T22:55:28.891Z,15.65
2019-05-15T22:57:58.656Z,13.13
2019-05-15T23:00:29.010Z,13.22
2019-05-15T23:02:58.206Z,11.57
2019-05-15T23:05:31.410Z,9.40
2019-05-15T23:07:58.909Z,10.95
2019-05-15T23:10:29.167Z,9.65
2019-05-15T23:12:58.962Z,9.35
2019-05-15T23:15:28.294Z,8.58
2019-05-15T23:17:58.195Z,7.35
2019-05-15T23:20:28.623Z,8.63
2019-05-15T23:22:58.512Z,7.55
2019-05-15T23:25:28.924Z,9.35
2019-05-15T23:27:58.340Z,8.73
2019-05-15T23:30:28.801Z,8.55
2019-05-15T23:32:58.266Z,10.15
2019-05-15T23:35:37.274Z,12.25
2019-05-15T23:37:58.238Z,8.08
2019-05-15T23:40:28.811Z,7.92
2019-05-15T23:42:59.814Z,7.80
2019-05-15T23:45:28.933Z,7.45
2019-05-15T23:47:58.120Z,7.97
2019-05-15T23:50:28.921Z,8.88
2019-05-15T23:52:58.406Z,8.70
2019-05-15T23:55:28.451Z,7.53
2019-05-15T23:57:58.502Z,9.60
